Time;durP1;ratioP1;P1;durP2;ratioP2;P2;SDS_P1;SDS_P2;PMS_P1;PMS_P2;Temp;Humidity;BMP_temperature;BMP_pressure;BME280_temperature;BME280_humidity;BME280_pressure;Samples;Min_cycle;Max_cycle;Signal;HPM_P1;HPM_P2
2023/04/24 00:00:56;;;;;;;5.32;3.80;;;;;;;-145.41;100.00;58600.66;4964053;28;20078;-74
2023/04/24 00:03:22;;;;;;;8.38;4.13;;;;;;;-145.41;100.00;58600.66;4964381;28;20441;-74
2023/04/24 00:05:48;;;;;;;8.40;4.35;;;;;;;-145.41;100.00;58600.66;4968903;28;20070;-74
2023/04/24 00:08:13;;;;;;;5.82;4.25;;;;;;;-145.41;100.00;58600.66;4966300;28;20116;-74
2023/04/24 00:10:39;;;;;;;5.95;3.85;;;;;;;-145.41;100.00;58600.66;4966202;28;20405;-74
2023/04/24 00:13:04;;;;;;;5.90;4.22;;;;;;;-145.41;100.00;58600.66;4964753;28;20066;-74
2023/04/24 00:15:29;;;;;;;6.28;4.30;;;;;;;-145.41;100.00;58600.66;4975970;28;20047;-74
2023/04/24 00:17:55;;;;;;;6.60;4.95;;;;;;;-145.41;100.00;58600.66;4966689;28;20049;-73
2023/04/24 00:20:21;;;;;;;6.22;4.10;;;;;;;-145.41;100.00;58600.66;4962430;28;20486;-74
2023/04/24 00:22:46;;;;;;;7.13;4.90;;;;;;;-145.41;100.00;58600.66;4947507;28;20042;-74
2023/04/24 00:25:11;;;;;;;7.22;5.28;;;;;;;-145.41;100.00;58600.66;4965254;28;20090;-74
2023/04/24 00:27:38;;;;;;;5.50;3.55;;;;;;;-145.41;100.00;58600.66;4965427;28;20049;-74
2023/04/24 00:30:04;;;;;;;5.68;3.70;;;;;;;-145.41;100.00;58600.66;4944613;29;20031;-74
2023/04/24 00:32:29;;;;;;;8.95;3.72;;;;;;;-145.41;100.00;58600.66;4965087;28;20143;-74
2023/04/24 00:34:55;;;;;;;6.05;4.80;;;;;;;-145.41;100.00;58600.66;4944537;28;20482;-74
2023/04/24 00:37:20;;;;;;;5.70;3.78;;;;;;;-145.41;100.00;58600.66;4965150;28;20050;-74
2023/04/24 00:39:45;;;;;;;5.45;4.28;;;;;;;-145.41;100.00;58600.66;4951525;28;20035;-74
2023/04/24 00:42:11;;;;;;;8.05;4.10;;;;;;;-145.41;100.00;58600.66;4965416;28;20038;-73
2023/04/24 00:44:37;;;;;;;7.82;5.93;;;;;;;-145.41;100.00;58600.66;4961354;28;20043;-74
2023/04/24 00:47:02;;;;;;;7.68;4.53;;;;;;;-145.41;100.00;58600.66;4947726;28;20106;-74
2023/04/24 00:49:28;;;;;;;6.78;5.00;;;;;;;-145.41;100.00;58600.66;4964760;28;20409;-74
2023/04/24 00:51:53;;;;;;;6.85;4.68;;;;;;;-145.41;100.00;58600.66;4944343;28;20038;-73
2023/04/24 00:54:19;;;;;;;6.30;5.22;;;;;;;-145.41;100.00;58600.66;4964704;28;20557;-74
2023/04/24 00:56:45;;;;;;;7.32;5.75;;;;;;;-145.41;100.00;58600.66;4965734;28;20031;-74
2023/04/24 00:59:12;;;;;;;7.45;5.78;;;;;;;-145.41;100.00;58600.66;4964161;28;20118;-74
2023/04/24 01:01:41;;;;;;;7.55;5.13;;;;;;;-145.41;100.00;58600.66;4961592;28;20050;-73
2023/04/24 01:04:09;;;;;;;8.50;5.70;;;;;;;-145.41;100.00;58600.66;4963588;28;20070;-74
2023/04/24 01:06:39;;;;;;;8.23;5.70;;;;;;;-145.41;100.00;58600.66;4953463;28;20401;-74
2023/04/24 01:09:04;;;;;;;6.35;4.75;;;;;;;-145.41;100.00;58600.66;4960696;28;20409;-74
2023/04/24 01:11:30;;;;;;;8.52;7.10;;;;;;;-145.41;100.00;58600.66;4963810;28;20039;-73
2023/04/24 01:13:56;;;;;;;9.05;6.10;;;;;;;-145.41;100.00;58600.66;4962133;28;20019;-74
2023/04/24 01:16:21;;;;;;;7.47;6.03;;;;;;;-145.41;100.00;58600.66;4968281;28;20035;-74
2023/04/24 01:18:47;;;;;;;7.45;5.80;;;;;;;-145.41;100.00;58600.66;4964029;28;20169;-74
2023/04/24 01:21:16;;;;;;;9.30;7.07;;;;;;;-145.41;100.00;58600.66;4964446;28;20027;-74
2023/04/24 01:23:43;;;;;;;8.43;6.20;;;;;;;-145.41;100.00;58600.66;4951777;29;20042;-74
2023/04/24 01:26:09;;;;;;;7.60;5.85;;;;;;;-145.41;100.00;58600.66;4962094;28;20536;-74
2023/04/24 01:28:34;;;;;;;8.52;6.50;;;;;;;-145.41;100.00;58600.66;4964247;28;20062;-74
2023/04/24 01:31:00;;;;;;;8.18;5.05;;;;;;;-145.41;100.00;58600.66;4964531;28;20711;-73
2023/04/24 01:33:25;;;;;;;8.15;5.13;;;;;;;-145.41;100.00;58600.66;4953484;28;20065;-74
2023/04/24 01:35:51;;;;;;;9.00;5.80;;;;;;;-145.41;100.00;58600.66;4961265;28;20110;-73
2023/04/24 01:38:16;;;;;;;8.30;5.88;;;;;;;-145.41;100.00;58600.66;4963491;28;20038;-74
2023/04/24 01:40:42;;;;;;;8.05;6.20;;;;;;;-145.41;100.00;58600.66;4963337;28;20031;-73
2023/04/24 01:43:07;;;;;;;8.15;6.55;;;;;;;-145.41;100.00;58600.66;4946370;28;20035;-74
2023/04/24 01:45:33;;;;;;;8.65;6.45;;;;;;;-145.41;100.00;58600.66;4952611;28;20099;-73
2023/04/24 01:47:58;;;;;;;8.70;6.18;;;;;;;-145.41;100.00;58600.66;4967192;28;20517;-73
2023/04/24 01:50:24;;;;;;;6.93;5.53;;;;;;;-145.41;100.00;58600.66;4960409;28;20152;-74
2023/04/24 01:52:49;;;;;;;7.93;6.05;;;;;;;-145.41;100.00;58600.66;4955526;28;20042;-74
2023/04/24 01:55:15;;;;;;;9.45;6.38;;;;;;;-145.41;100.00;58600.66;4963176;28;20050;-74
2023/04/24 01:57:40;;;;;;;6.88;5.35;;;;;;;-145.41;100.00;58600.66;4956517;28;20086;-74
2023/04/24 02:00:07;;;;;;;7.60;5.53;;;;;;;-145.41;100.00;58600.66;4964288;28;20038;-72
2023/04/24 02:02:41;;;;;;;7.47;5.70;;;;;;;-145.41;100.00;58600.66;4962891;28;20047;-72
2023/04/24 02:05:08;;;;;;;8.77;6.20;;;;;;;-145.41;100.00;58600.66;4962040;28;20460;-72
2023/04/24 02:07:35;;;;;;;7.10;5.93;;;;;;;-145.41;100.00;58600.66;4946026;28;20414;-72
2023/04/24 02:10:01;;;;;;;7.15;5.53;;;;;;;-145.41;100.00;58600.66;4950810;28;20038;-72
2023/04/24 02:12:26;;;;;;;8.63;6.50;;;;;;;-145.41;100.00;58600.66;4960668;28;20118;-72
2023/04/24 02:14:51;;;;;;;7.65;5.70;;;;;;;-145.41;100.00;58600.66;4948824;28;20504;-72
2023/04/24 02:17:18;;;;;;;7.80;5.55;;;;;;;-145.41;100.00;58600.66;4966461;28;20038;-71
2023/04/24 02:19:44;;;;;;;8.73;5.97;;;;;;;-145.41;100.00;58600.66;4964091;28;20039;-72
2023/04/24 02:22:10;;;;;;;7.85;5.60;;;;;;;-145.41;100.00;58600.66;4950375;28;20441;-72
2023/04/24 02:24:36;;;;;;;7.60;5.90;;;;;;;-145.41;100.00;58600.66;4955171;28;20059;-72
2023/04/24 02:27:02;;;;;;;8.27;5.85;;;;;;;-145.41;100.00;58600.66;4991322;23;20424;-76
2023/04/24 02:29:28;;;;;;;8.50;6.47;;;;;;;-145.41;100.00;58600.66;5001987;28;20421;-76
2023/04/24 02:31:53;;;;;;;7.55;5.32;;;;;;;-145.41;100.00;58600.66;5005209;28;20030;-76
2023/04/24 02:34:20;;;;;;;11.00;7.32;;;;;;;-145.41;100.00;58600.66;5003916;28;20054;-76
2023/04/24 02:36:45;;;;;;;8.95;5.75;;;;;;;-145.41;100.00;58600.66;4981168;28;20047;-76
2023/04/24 02:39:10;;;;;;;13.25;6.65;;;;;;;-145.41;100.00;58600.66;4963328;28;20042;-76
2023/04/24 02:41:37;;;;;;;7.53;5.53;;;;;;;-145.41;100.00;58600.66;4947840;28;20038;-76
2023/04/24 02:44:02;;;;;;;7.10;5.30;;;;;;;-145.41;100.00;58600.66;4967370;28;20402;-76
2023/04/24 02:46:28;;;;;;;7.72;5.15;;;;;;;-145.41;100.00;58600.66;4965723;28;20046;-76
2023/04/24 02:48:53;;;;;;;11.02;8.13;;;;;;;-145.41;100.00;58600.66;4964913;28;20445;-76
2023/04/24 02:51:19;;;;;;;8.35;6.38;;;;;;;-145.41;100.00;58600.66;4947953;28;20034;-76
2023/04/24 02:53:44;;;;;;;12.90;9.40;;;;;;;-145.41;100.00;58600.66;4967382;28;20019;-76
2023/04/24 02:56:12;;;;;;;10.38;7.00;;;;;;;-145.41;100.00;58600.66;4955759;28;20039;-76
2023/04/24 02:58:37;;;;;;;11.27;8.68;;;;;;;-145.41;100.00;58600.66;4948162;28;20042;-77
2023/04/24 03:01:03;;;;;;;8.60;6.68;;;;;;;-145.41;100.00;58600.66;4950578;28;20401;-76
2023/04/24 03:03:28;;;;;;;9.13;5.50;;;;;;;-145.41;100.00;58600.66;4965586;28;20122;-76
2023/04/24 03:05:53;;;;;;;7.43;5.68;;;;;;;-145.41;100.00;58600.66;4964510;28;20072;-76
2023/04/24 03:08:19;;;;;;;7.15;4.53;;;;;;;-145.41;100.00;58600.66;4950928;28;20039;-76
2023/04/24 03:10:44;;;;;;;5.13;3.35;;;;;;;-145.41;100.00;58600.66;4966790;28;20035;-76
2023/04/24 03:13:09;;;;;;;6.32;4.60;;;;;;;-145.41;100.00;58600.66;4956808;28;20027;-76
2023/04/24 03:15:35;;;;;;;6.43;4.80;;;;;;;-145.41;100.00;58600.66;4946780;28;20158;-76
2023/04/24 03:18:00;;;;;;;5.75;3.70;;;;;;;-145.41;100.00;58600.66;4969368;28;20497;-76
2023/04/24 03:20:26;;;;;;;4.80;3.03;;;;;;;-145.41;100.00;58600.66;4946129;28;20513;-76
2023/04/24 03:22:53;;;;;;;7.45;3.80;;;;;;;-145.41;100.00;58600.66;4948757;28;20086;-76
2023/04/24 03:25:19;;;;;;;5.47;3.00;;;;;;;-145.41;100.00;58600.66;4953644;28;20498;-76
2023/04/24 03:27:44;;;;;;;5.07;3.13;;;;;;;-145.41;100.00;58600.66;4956759;28;20122;-76
2023/04/24 03:30:25;;;;;;;3.60;2.47;;;;;;;-145.41;100.00;58600.66;4948600;28;20035;-76
2023/04/24 03:32:56;;;;;;;6.20;2.35;;;;;;;-145.41;100.00;58600.66;4951487;28;20122;-76
2023/04/24 03:35:26;;;;;;;4.68;2.30;;;;;;;-145.41;100.00;58600.66;4953512;28;20126;-76
2023/04/24 03:37:52;;;;;;;5.38;2.60;;;;;;;-145.41;100.00;58600.66;4949722;28;20494;-76
2023/04/24 03:40:36;;;;;;;3.75;1.83;;;;;;;-145.41;100.00;58600.66;4966463;28;20141;-76
2023/04/24 03:43:06;;;;;;;3.45;1.95;;;;;;;-145.41;100.00;58600.66;4961887;28;20053;-76
2023/04/24 03:45:31;;;;;;;5.72;1.85;;;;;;;-145.41;100.00;58600.66;4968865;28;20513;-76
2023/04/24 03:47:57;;;;;;;4.15;1.63;;;;;;;-145.41;100.00;58600.66;4956176;28;20138;-76
2023/04/24 03:50:23;;;;;;;5.05;1.63;;;;;;;-145.41;100.00;58600.66;4956161;28;20065;-76
2023/04/24 03:52:49;;;;;;;3.45;1.60;;;;;;;-145.41;100.00;58600.66;4946977;28;20062;-77
2023/04/24 03:55:25;;;;;;;4.65;1.90;;;;;;;-145.41;100.00;58600.66;4951212;28;20065;-77
2023/04/24 03:57:52;;;;;;;3.13;1.85;;;;;;;-145.41;100.00;58600.66;4956300;28;20045;-77
2023/04/24 04:00:21;;;;;;;3.08;1.30;;;;;;;-145.41;100.00;58600.66;4946902;28;20027;-76
2023/04/24 04:02:53;;;;;;;4.10;1.50;;;;;;;-145.41;100.00;58600.66;4947440;28;20481;-77
2023/04/24 04:05:18;;;;;;;3.58;1.60;;;;;;;-145.41;100.00;58600.66;4955630;28;20042;-77
2023/04/24 04:07:44;;;;;;;3.55;1.13;;;;;;;-145.41;100.00;58600.66;4953928;28;20097;-77
2023/04/24 04:10:09;;;;;;;1.98;0.93;;;;;;;-145.41;100.00;58600.66;4949208;28;20035;-77
2023/04/24 04:12:36;;;;;;;3.50;0.95;;;;;;;-145.41;100.00;58600.66;4945714;28;20035;-77
2023/04/24 04:15:02;;;;;;;4.20;1.10;;;;;;;-145.41;100.00;58600.66;4970906;28;20482;-76
2023/04/24 04:17:27;;;;;;;1.77;0.85;;;;;;;-145.41;100.00;58600.66;4952631;28;20027;-77
2023/04/24 04:19:53;;;;;;;3.15;1.00;;;;;;;-145.41;100.00;58600.66;4952439;29;20043;-76
2023/04/24 04:22:18;;;;;;;2.72;1.13;;;;;;;-145.41;100.00;58600.66;4955722;28;20038;-76
2023/04/24 04:24:47;;;;;;;3.08;1.20;;;;;;;-145.41;100.00;58600.66;4953871;28;20034;-77
2023/04/24 04:27:13;;;;;;;3.67;1.52;;;;;;;-145.41;100.00;58600.66;4947558;28;20031;-76
2023/04/24 04:29:46;;;;;;;2.40;1.20;;;;;;;-145.41;100.00;58600.66;4947830;28;20462;-76
2023/04/24 04:32:15;;;;;;;2.72;1.25;;;;;;;-145.41;100.00;58600.66;4949683;28;20383;-76
2023/04/24 04:34:40;;;;;;;3.15;1.15;;;;;;;-145.41;100.00;58600.66;4950093;28;20026;-77
2023/04/24 04:37:10;;;;;;;1.90;0.80;;;;;;;-145.41;100.00;58600.66;4952464;28;20465;-76
2023/04/24 04:39:45;;;;;;;1.83;0.85;;;;;;;-145.41;100.00;58600.66;4949789;28;20034;-77
2023/04/24 04:42:16;;;;;;;3.27;1.10;;;;;;;-145.41;100.00;58600.66;4953114;28;20446;-76
2023/04/24 04:44:44;;;;;;;1.98;0.90;;;;;;;-145.41;100.00;58600.66;4951989;28;20122;-76
2023/04/24 04:47:14;;;;;;;10.13;3.88;;;;;;;-145.41;100.00;58600.66;4949766;28;20031;-77
2023/04/24 04:49:41;;;;;;;6.00;2.58;;;;;;;-145.41;100.00;58600.66;4951139;28;20054;-77
2023/04/24 04:52:16;;;;;;;5.13;2.13;;;;;;;-145.41;100.00;58600.66;4961539;28;20038;-77
2023/04/24 04:54:42;;;;;;;8.50;3.92;;;;;;;-145.41;100.00;58600.66;4953110;28;20081;-77
2023/04/24 04:57:07;;;;;;;4.70;2.13;;;;;;;-145.41;100.00;58600.66;4967796;28;20456;-76
2023/04/24 04:59:35;;;;;;;3.83;1.30;;;;;;;-145.41;100.00;58600.66;4948772;28;20401;-76
2023/04/24 05:02:05;;;;;;;4.20;1.50;;;;;;;-145.41;100.00;58600.66;4948439;28;20589;-76
2023/04/24 05:04:31;;;;;;;5.63;3.03;;;;;;;-145.41;100.00;58600.66;4954624;28;20121;-76
2023/04/24 05:06:56;;;;;;;2.95;1.40;;;;;;;-145.41;100.00;58600.66;4950849;28;20194;-76
2023/04/24 05:09:22;;;;;;;4.18;1.20;;;;;;;-145.41;100.00;58600.66;4948580;28;20498;-77
2023/04/24 05:11:55;;;;;;;4.22;1.90;;;;;;;-145.41;100.00;58600.66;4945196;28;20037;-77
2023/04/24 05:14:22;;;;;;;3.83;1.48;;;;;;;-145.41;100.00;58600.66;4945015;28;20077;-76
2023/04/24 05:16:48;;;;;;;5.45;1.60;;;;;;;-145.41;100.00;58600.66;4944222;28;20034;-77
2023/04/24 05:19:15;;;;;;;8.85;2.70;;;;;;;-145.41;100.00;58600.66;4947194;28;20093;-76
2023/04/24 05:21:41;;;;;;;7.55;2.08;;;;;;;-145.41;100.00;58600.66;4962696;28;20039;-77
2023/04/24 05:24:07;;;;;;;4.75;2.40;;;;;;;-145.41;100.00;58600.66;4955162;28;20031;-77
2023/04/24 05:26:51;;;;;;;4.82;1.85;;;;;;;-145.41;100.00;58600.66;4963138;28;20062;-76
2023/04/24 05:29:22;;;;;;;3.70;1.75;;;;;;;-145.41;100.00;58600.66;4944041;28;20544;-76
2023/04/24 05:31:47;;;;;;;5.45;1.90;;;;;;;-145.41;100.00;58600.66;4947155;29;20039;-77
2023/04/24 05:34:14;;;;;;;6.75;1.98;;;;;;;-145.41;100.00;58600.66;4955042;28;20031;-76
2023/04/24 05:36:42;;;;;;;4.18;1.45;;;;;;;-145.41;100.00;58600.66;4943566;28;20039;-76
2023/04/24 05:39:08;;;;;;;4.78;1.70;;;;;;;-145.41;100.00;58600.66;4950081;28;20105;-76
2023/04/24 05:41:34;;;;;;;5.65;1.80;;;;;;;-145.41;100.00;58600.66;4966563;28;20051;-77
2023/04/24 05:43:59;;;;;;;4.60;1.63;;;;;;;-145.41;100.00;58600.66;4961078;28;20042;-77
2023/04/24 05:46:25;;;;;;;4.85;1.33;;;;;;;-145.41;100.00;58600.66;4946388;28;20521;-76
2023/04/24 05:48:51;;;;;;;3.85;1.52;;;;;;;-145.41;100.00;58600.66;4945986;28;20043;-76
2023/04/24 05:51:17;;;;;;;2.97;1.52;;;;;;;-145.41;100.00;58600.66;4942074;28;20114;-76
2023/04/24 05:53:42;;;;;;;4.90;1.38;;;;;;;-145.41;100.00;58600.66;4948780;28;20122;-77
2023/04/24 05:56:08;;;;;;;2.92;1.38;;;;;;;-145.41;100.00;58600.66;4950779;28;20041;-76
2023/04/24 05:58:34;;;;;;;4.30;1.45;;;;;;;-145.41;100.00;58600.66;4949216;28;20038;-76
2023/04/24 06:01:01;;;;;;;3.95;1.55;;;;;;;-145.41;100.00;58600.66;4947736;28;20039;-76
2023/04/24 06:03:27;;;;;;;4.30;1.48;;;;;;;-145.41;100.00;58600.66;4969971;28;20653;-76
2023/04/24 06:05:53;;;;;;;5.60;2.25;;;;;;;-145.41;100.00;58600.66;4947223;28;20129;-76
2023/04/24 06:08:20;;;;;;;5.88;1.60;;;;;;;-145.41;100.00;58600.66;4958392;28;20413;-77
2023/04/24 06:10:47;;;;;;;3.03;1.30;;;;;;;-145.41;100.00;58600.66;4964147;28;20058;-76
2023/04/24 06:13:12;;;;;;;3.30;1.23;;;;;;;-145.41;100.00;58600.66;4951978;28;20117;-77
2023/04/24 06:15:43;;;;;;;5.00;2.22;;;;;;;-145.41;100.00;58600.66;4955277;28;20043;-76
2023/04/24 06:18:13;;;;;;;5.35;1.45;;;;;;;-145.41;100.00;58600.66;4963904;28;20042;-76
2023/04/24 06:20:39;;;;;;;3.53;1.48;;;;;;;-145.41;100.00;58600.66;4961633;28;20039;-76
2023/04/24 06:23:07;;;;;;;6.53;1.80;;;;;;;-145.41;100.00;58600.66;4954115;28;20037;-76
2023/04/24 06:25:33;;;;;;;4.13;1.48;;;;;;;-145.41;100.00;58600.66;4953392;28;20039;-76
2023/04/24 06:27:58;;;;;;;5.53;1.30;;;;;;;-145.41;100.00;58600.66;4967815;28;20118;-77
2023/04/24 06:30:24;;;;;;;4.00;1.20;;;;;;;-145.41;100.00;58600.66;4955569;28;20042;-76
2023/04/24 06:32:50;;;;;;;2.72;1.00;;;;;;;-145.41;100.00;58600.66;4949443;28;20041;-77
2023/04/24 06:35:16;;;;;;;4.95;1.20;;;;;;;-145.41;100.00;58600.66;4967364;28;20084;-77
2023/04/24 06:37:42;;;;;;;2.92;1.08;;;;;;;-145.41;100.00;58600.66;4948874;28;20497;-76
2023/04/24 06:40:08;;;;;;;7.55;4.40;;;;;;;-145.41;100.00;58600.66;4965704;28;20452;-76
2023/04/24 06:42:34;;;;;;;3.75;1.10;;;;;;;-145.41;100.00;58600.66;4965062;28;20070;-77
2023/04/24 06:45:03;;;;;;;2.13;1.08;;;;;;;-145.41;100.00;58600.66;4951047;28;20126;-76
2023/04/24 06:47:28;;;;;;;7.65;1.10;;;;;;;-145.41;100.00;58600.66;4967184;28;20038;-77
2023/04/24 06:49:54;;;;;;;2.78;1.08;;;;;;;-145.41;100.00;58600.66;4965602;28;20045;-76
2023/04/24 06:52:20;;;;;;;4.07;1.15;;;;;;;-145.41;100.00;58600.66;4964682;28;20046;-77
2023/04/24 06:54:45;;;;;;;3.70;1.10;;;;;;;-145.41;100.00;58600.66;4968207;28;20034;-76
2023/04/24 06:57:11;;;;;;;2.45;1.13;;;;;;;-145.41;100.00;58600.66;4966872;28;20066;-76
2023/04/24 06:59:36;;;;;;;5.90;2.08;;;;;;;-145.41;100.00;58600.66;4963010;28;20035;-76
2023/04/24 07:02:02;;;;;;;2.90;0.93;;;;;;;-145.41;100.00;58600.66;4966135;28;20042;-77
2023/04/24 07:04:28;;;;;;;3.25;1.10;;;;;;;-145.41;100.00;58600.66;4967689;28;20516;-76
2023/04/24 07:06:57;;;;;;;2.38;1.13;;;;;;;-145.41;100.00;58600.66;4966308;28;20043;-76
2023/04/24 07:09:25;;;;;;;2.53;0.95;;;;;;;-145.41;100.00;58600.66;4968024;28;20035;-76
2023/04/24 07:11:51;;;;;;;2.67;1.00;;;;;;;-145.41;100.00;58600.66;4963140;28;20050;-77
2023/04/24 07:14:17;;;;;;;2.63;1.20;;;;;;;-145.41;100.00;58600.66;4966330;28;20038;-76
2023/04/24 07:16:42;;;;;;;3.22;1.20;;;;;;;-145.41;100.00;58600.66;4963452;28;20091;-76
2023/04/24 07:19:08;;;;;;;2.42;0.98;;;;;;;-145.41;100.00;58600.66;4965888;28;20647;-77
2023/04/24 07:21:34;;;;;;;5.47;1.10;;;;;;;-145.41;100.00;58600.66;4966646;28;20070;-77
2023/04/24 07:23:59;;;;;;;1.63;0.80;;;;;;;-145.41;100.00;58600.66;4963570;28;20046;-76
2023/04/24 07:26:26;;;;;;;3.22;1.00;;;;;;;-145.41;100.00;58600.66;4965435;28;20034;-76
2023/04/24 07:28:51;;;;;;;2.05;0.60;;;;;;;-145.41;100.00;58600.66;4965341;28;20034;-76
2023/04/24 07:31:17;;;;;;;1.85;0.40;;;;;;;-145.41;100.00;58600.66;4970287;28;20101;-76
2023/04/24 07:33:42;;;;;;;3.40;0.73;;;;;;;-145.41;100.00;58600.66;4970996;28;20026;-77
2023/04/24 07:36:07;;;;;;;1.83;0.70;;;;;;;-145.41;100.00;58600.66;4966972;28;20073;-77
2023/04/24 07:38:33;;;;;;;2.90;0.60;;;;;;;-145.41;100.00;58600.66;4967073;28;20031;-76
2023/04/24 07:40:58;;;;;;;2.55;0.70;;;;;;;-145.41;100.00;58600.66;4970643;28;20076;-76
2023/04/24 07:43:23;;;;;;;1.50;0.57;;;;;;;-145.41;100.00;58600.66;4964031;28;20191;-76
2023/04/24 07:45:52;;;;;;;1.02;0.50;;;;;;;-145.41;100.00;58600.66;4968903;28;20030;-77
2023/04/24 07:48:17;;;;;;;2.00;0.70;;;;;;;-145.41;100.00;58600.66;4969292;28;20049;-76
2023/04/24 07:50:44;;;;;;;2.33;0.70;;;;;;;-145.41;100.00;58600.66;4966768;28;20039;-77
2023/04/24 07:53:09;;;;;;;1.83;0.60;;;;;;;-145.41;100.00;58600.66;4963658;28;20505;-77
2023/04/24 07:55:35;;;;;;;2.80;0.70;;;;;;;-145.41;100.00;58600.66;4963404;28;20046;-77
2023/04/24 07:58:00;;;;;;;2.38;0.77;;;;;;;-145.41;100.00;58600.66;4970565;28;20057;-77
2023/04/24 08:00:26;;;;;;;1.80;0.80;;;;;;;-145.41;100.00;58600.66;4970978;28;20047;-77
2023/04/24 08:02:51;;;;;;;1.42;0.47;;;;;;;-145.41;100.00;58600.66;4965215;28;20118;-77
2023/04/24 08:05:17;;;;;;;2.78;0.90;;;;;;;-145.41;100.00;58600.66;4963154;28;20061;-77
2023/04/24 08:07:42;;;;;;;6.30;1.42;;;;;;;-145.41;100.00;58600.66;4962027;28;20039;-76
2023/04/24 08:10:10;;;;;;;1.90;0.70;;;;;;;-145.41;100.00;58600.66;4960786;28;20041;-76
2023/04/24 08:12:36;;;;;;;1.02;0.47;;;;;;;-145.41;100.00;58600.66;4950574;28;20072;-76
2023/04/24 08:15:02;;;;;;;2.13;0.60;;;;;;;-145.41;100.00;58600.66;4961211;28;20035;-77
2023/04/24 08:17:27;;;;;;;6.07;0.82;;;;;;;-145.41;100.00;58600.66;4965543;28;20046;-77
2023/04/24 08:19:58;;;;;;;4.28;0.70;;;;;;;-145.41;100.00;58600.66;4967976;28;20081;-77
2023/04/24 08:22:24;;;;;;;1.40;0.50;;;;;;;-145.41;100.00;58600.66;4970148;28;20121;-76
2023/04/24 08:24:49;;;;;;;2.53;0.88;;;;;;;-145.41;100.00;58600.66;4969743;28;20516;-77
2023/04/24 08:27:15;;;;;;;2.25;0.75;;;;;;;-145.41;100.00;58600.66;4997755;22;20042;-72
2023/04/24 08:29:40;;;;;;;2.22;0.60;;;;;;;-145.41;100.00;58600.66;5004468;28;20041;-72
2023/04/24 08:32:06;;;;;;;2.15;0.70;;;;;;;-145.41;100.00;58600.66;5004944;28;20696;-72
2023/04/24 08:34:31;;;;;;;4.60;0.70;;;;;;;-145.41;100.00;58600.66;4998037;28;20034;-72
2023/04/24 08:36:56;;;;;;;2.13;0.70;;;;;;;-145.41;100.00;58600.66;4996085;28;20089;-71
2023/04/24 08:39:22;;;;;;;1.38;0.60;;;;;;;-145.41;100.00;58600.66;4976550;28;20041;-71
2023/04/24 08:41:48;;;;;;;2.50;0.40;;;;;;;-145.41;100.00;58600.66;4988076;28;20042;-72
2023/04/24 08:44:15;;;;;;;2.97;0.70;;;;;;;-145.41;100.00;58600.66;4983897;28;20043;-72
2023/04/24 08:46:42;;;;;;;2.00;0.52;;;;;;;-145.41;100.00;58600.66;4985560;28;20390;-72
2023/04/24 08:49:08;;;;;;;1.77;0.60;;;;;;;-145.41;100.00;58600.66;4980059;28;20038;-72
2023/04/24 08:51:33;;;;;;;2.30;0.55;;;;;;;-145.41;100.00;58600.66;4988553;28;20034;-72
2023/04/24 08:53:59;;;;;;;1.77;0.70;;;;;;;-145.41;100.00;58600.66;4982553;28;20568;-72
2023/04/24 08:56:24;;;;;;;2.67;0.80;;;;;;;-145.41;100.00;58600.66;4981733;28;20045;-72
2023/04/24 08:58:51;;;;;;;2.10;0.63;;;;;;;-145.41;100.00;58600.66;4982742;28;20087;-72
2023/04/24 09:01:19;;;;;;;2.58;0.70;;;;;;;-145.41;100.00;58600.66;4979992;28;20610;-71
2023/04/24 09:03:48;;;;;;;3.80;0.85;;;;;;;-145.41;100.00;58600.66;4984736;28;20036;-72
2023/04/24 09:06:14;;;;;;;2.40;0.77;;;;;;;-145.41;100.00;58600.66;4962650;28;20093;-72
2023/04/24 09:08:41;;;;;;;4.88;1.08;;;;;;;-145.41;100.00;58600.66;4982332;28;20085;-72
2023/04/24 09:11:06;;;;;;;2.92;0.95;;;;;;;-145.41;100.00;58600.66;4975551;28;20041;-71
2023/04/24 09:13:32;;;;;;;1.60;0.50;;;;;;;-145.41;100.00;58600.66;4980932;28;20445;-73
2023/04/24 09:16:00;;;;;;;2.70;0.90;;;;;;;-145.41;100.00;58600.66;4981854;28;20053;-72
2023/04/24 09:18:26;;;;;;;3.22;0.70;;;;;;;-145.41;100.00;58600.66;4966363;28;20092;-72
2023/04/24 09:21:00;;;;;;;1.58;0.70;;;;;;;-145.41;100.00;58600.66;4980708;28;20563;-72
2023/04/24 09:23:28;;;;;;;2.92;0.80;;;;;;;-145.41;100.00;58600.66;4980733;28;20053;-72
2023/04/24 09:25:57;;;;;;;2.65;0.70;;;;;;;-145.41;100.00;58600.66;4980384;28;20073;-72
2023/04/24 09:28:35;;;;;;;3.05;0.70;;;;;;;-145.41;100.00;58600.66;4981390;28;20038;-72
2023/04/24 09:31:09;;;;;;;2.05;0.40;;;;;;;-145.41;100.00;58600.66;4978035;28;20042;-72
2023/04/24 09:33:35;;;;;;;1.73;0.63;;;;;;;-145.41;100.00;58600.66;4969363;28;20031;-72
2023/04/24 09:36:02;;;;;;;3.65;0.60;;;;;;;-145.41;100.00;58600.66;4982289;28;20049;-72
2023/04/24 09:38:32;;;;;;;1.63;0.57;;;;;;;-145.41;100.00;58600.66;4977004;28;20062;-72
2023/04/24 09:41:05;;;;;;;1.52;0.57;;;;;;;-145.41;100.00;58600.66;4982318;28;20047;-71
2023/04/24 09:43:31;;;;;;;3.85;0.70;;;;;;;-145.41;100.00;58600.66;4978153;28;20039;-72
2023/04/24 09:45:58;;;;;;;3.05;0.85;;;;;;;-145.41;100.00;58600.66;4977052;28;20030;-72
2023/04/24 09:48:34;;;;;;;1.50;0.80;;;;;;;-145.41;100.00;58600.66;4986657;28;20085;-72
2023/04/24 09:51:10;;;;;;;1.73;0.60;;;;;;;-145.41;100.00;58600.66;4985822;28;20042;-73
2023/04/24 09:53:35;;;;;;;3.17;0.75;;;;;;;-145.41;100.00;58600.66;4983087;28;20030;-72
2023/04/24 09:56:09;;;;;;;3.88;0.80;;;;;;;-145.41;100.00;58600.66;4963689;28;20033;-71
2023/04/24 09:58:36;;;;;;;1.33;0.55;;;;;;;-145.41;100.00;58600.66;4960718;28;20106;-72
2023/04/24 10:01:01;;;;;;;2.22;0.80;;;;;;;-145.41;100.00;58600.66;4980838;28;20092;-72
2023/04/24 10:03:30;;;;;;;2.00;0.63;;;;;;;-145.41;100.00;58600.66;4964224;28;20043;-72
2023/04/24 10:05:59;;;;;;;2.80;0.77;;;;;;;-145.41;100.00;58600.66;4983729;28;20034;-71
2023/04/24 10:08:25;;;;;;;2.33;0.68;;;;;;;-145.41;100.00;58600.66;4979577;28;20624;-72
2023/04/24 10:10:50;;;;;;;2.15;0.57;;;;;;;-145.41;100.00;58600.66;4980376;28;20059;-72
2023/04/24 10:13:15;;;;;;;3.67;0.70;;;;;;;-145.41;100.00;58600.66;4980701;28;20034;-72
2023/04/24 10:15:42;;;;;;;0.85;0.40;;;;;;;-145.41;100.00;58600.66;4982766;28;20060;-72
2023/04/24 10:18:09;;;;;;;2.30;0.90;;;;;;;-145.41;100.00;58600.66;4979930;28;20053;-72
2023/04/24 10:20:38;;;;;;;0.98;0.52;;;;;;;-145.41;100.00;58600.66;4983253;28;20041;-72
2023/04/24 10:23:04;;;;;;;1.63;0.70;;;;;;;-145.41;100.00;58600.66;4976789;28;20039;-72
2023/04/24 10:25:33;;;;;;;2.47;0.63;;;;;;;-145.41;100.00;58600.66;4965421;28;20046;-72
2023/04/24 10:28:00;;;;;;;2.45;0.90;;;;;;;-145.41;100.00;58600.66;4980550;28;20117;-72
2023/04/24 10:30:28;;;;;;;1.98;0.70;;;;;;;-145.41;100.00;58600.66;4981650;28;20038;-72
2023/04/24 10:32:54;;;;;;;3.40;0.82;;;;;;;-145.41;100.00;58600.66;4981423;28;20039;-72
2023/04/24 10:35:22;;;;;;;2.22;0.70;;;;;;;-145.41;100.00;58600.66;4982516;28;20041;-72
2023/04/24 10:37:56;;;;;;;2.35;0.80;;;;;;;-145.41;100.00;58600.66;4982837;28;20054;-72
2023/04/24 10:40:34;;;;;;;4.50;0.98;;;;;;;-145.41;100.00;58600.66;4986429;28;20093;-72
2023/04/24 10:43:02;;;;;;;2.25;1.10;;;;;;;-145.41;100.00;58600.66;4952950;28;20039;-72
2023/04/24 10:45:28;;;;;;;2.65;0.90;;;;;;;-145.41;100.00;58600.66;4980481;28;20076;-72
2023/04/24 10:47:58;;;;;;;2.72;0.85;;;;;;;-145.41;100.00;58600.66;4984547;28;20042;-72
2023/04/24 10:50:25;;;;;;;2.95;0.80;;;;;;;-145.41;100.00;58600.66;4984984;28;20038;-72
2023/04/24 10:52:52;;;;;;;2.28;0.93;;;;;;;-145.41;100.00;58600.66;4984653;28;20038;-72
2023/04/24 10:55:46;;;;;;;1.15;0.50;;;;;;;-145.41;100.00;58600.66;4983149;28;20077;-72
2023/04/24 10:58:12;;;;;;;2.35;0.45;;;;;;;-145.41;100.00;58600.66;4985695;28;20046;-72
2023/04/24 11:00:39;;;;;;;1.30;0.60;;;;;;;-145.41;100.00;58600.66;4982352;28;20387;-72
2023/04/24 11:03:24;;;;;;;1.88;0.88;;;;;;;-145.41;100.00;58600.66;4980612;28;20034;-72
2023/04/24 11:05:55;;;;;;;2.20;0.40;;;;;;;-145.41;100.00;58600.66;4985362;28;20049;-72
2023/04/24 11:08:29;;;;;;;3.55;0.50;;;;;;;-145.41;100.00;58600.66;4961258;28;20122;-72